Terminal Aerodrome Forecast
Issued by NWS

Home | Current Version | Previous Version | Text Only | Print | Product List | Glossary On
Versions: 1 2 3 4 5 6 7 8 9 10 11 12 13 14 15 16 17 18 19
911
FTUS43 KJKL 181346 AAA
TAFSME
TAF AMD
KSME 181346Z 1814/1912 27005KT P6SM BKN025 OVC050
     FM181600 27007KT P6SM BKN040
     FM182100 27007KT P6SM SCT045
     FM190100 00000KT P6SM SKC=

USA.gov is the U.S. government's official web portal to all federal, state and local government web resources and services.